Latest Weather Observations for Ulladulla

IDN60801

Issued at 4:35 pm EST Wednesday 20 August 2014 (issued every 30 minutes, with the page automatically refreshed every 10 minutes)

About weather observations | Map of weather stations | Latest weather observations for NSW | Other Formats
Station Details ID: 069138 Name: ULLADULLA AWS Lat: -35.36 Lon: 150.48 Height: 35.7 m
Data from the previous 72 hours. | See also: Recent months at Ulladulla
Date/Time
EST
Temp
°C
App
Temp
°C
Dew
Point
Rel
Hum
%
Delta-T
°C
Wind Press
QNH
hPa
Press
MSL
hPa
Rain
since 9 am
mm
Dir
 
Spd
km/h
Gust
km/h
Spd
kts
Gust
kts
20/04:30pm 14.0 9.8 7.5 65 3.2 S 19 28 10 15 1025.5 - 0.0
20/04:00pm 14.2 9.6 6.3 59 3.8 S 20 28 11 15 1025.3 1025.4 0.0
20/03:30pm 14.4 9.8 6.7 60 3.7 S 20 28 11 15 1025.1 - 0.0
20/03:00pm 14.6 10.0 6.7 59 3.8 S 20 30 11 16 1025.0 1025.1 0.0
20/02:30pm 14.9 10.3 6.5 57 4.1 S 20 30 11 16 1024.8 - 0.0
20/02:00pm 14.9 9.4 6.0 55 4.2 S 24 33 13 18 1024.7 1024.8 0.0
20/01:30pm 15.3 9.1 6.3 55 4.4 S 28 33 15 18 1024.7 - 0.0
20/01:00pm 15.1 9.2 5.9 54 4.4 S 26 33 14 18 1024.9 1025.0 0.0
20/12:30pm 14.9 8.8 4.6 50 4.8 S 26 32 14 17 1025.1 - 0.0
20/12:00pm 15.2 10.8 4.6 49 4.9 SSW 17 24 9 13 1025.3 1025.4 0.0
20/11:30am 14.8 10.4 4.8 51 4.7 SSW 17 24 9 13 1025.6 - 0.0
20/11:00am 15.2 10.6 5.4 52 4.6 SSW 19 32 10 17 1025.7 1025.8 0.0
20/10:30am 14.4 9.6 4.7 52 4.5 SSW 19 28 10 15 1026.0 - 0.0
20/10:00am 13.4 8.3 4.0 53 4.2 SSW 20 30 11 16 1025.7 1025.8 0.0
20/09:30am 12.8 7.6 3.7 54 4.1 SSW 20 30 11 16 1025.6 - 0.0
20/09:00am 12.5 6.9 3.2 53 4.1 SSW 22 30 12 16 1025.6 1025.7 5.2
20/08:30am 12.1 6.5 3.3 55 3.9 SSW 22 35 12 19 1025.5 - 5.2
20/08:00am 11.7 6.8 4.0 59 3.4 SSW 19 26 10 14 1025.3 1025.4 5.2
20/07:30am 11.7 6.9 4.9 63 3.1 SSW 19 28 10 15 1025.1 - 5.2
20/07:00am 10.6 6.3 3.4 61 3.1 SSW 15 22 8 12 1024.7 1024.8 5.2
20/06:30am 10.4 5.7 3.4 62 3.1 SW 17 22 9 12 1024.2 - 5.2
20/06:00am 10.1 5.9 3.6 64 2.8 SW 15 22 8 12 1023.8 1023.9 5.2
20/05:30am 10.4 6.5 3.4 62 3.1 SW 13 22 7 12 1023.5 - 5.2
20/05:00am 11.2 6.7 4.0 61 3.2 SSW 17 26 9 14 1023.3 1023.3 5.2
20/04:30am 11.4 7.0 4.6 63 3.1 SSW 17 26 9 14 1023.1 - 5.2
20/04:00am 11.6 6.8 4.8 63 3.1 SSW 19 30 10 16 1022.9 1022.9 5.2
20/03:30am 11.5 6.6 4.3 61 3.2 SW 19 30 10 16 1022.8 - 5.2
20/03:00am 11.7 7.4 5.1 64 3.0 SW 17 26 9 14 1022.8 1022.8 5.2
20/02:30am 11.5 7.2 5.4 66 2.8 SW 17 30 9 16 1022.6 - 5.2
20/02:00am 11.5 7.2 5.4 66 2.8 SW 17 24 9 13 1022.7 1022.7 5.2
20/01:30am 11.9 7.4 6.0 67 2.8 SSW 19 30 10 16 1022.7 - 5.2
20/01:00am 12.1 7.4 5.3 63 3.1 SSW 19 32 10 17 1022.8 1022.8 5.2
20/12:30am 11.9 7.1 4.4 60 3.4 SW 19 32 10 17 1022.6 - 5.2
20/12:00am 11.8 7.7 4.1 59 3.4 SW 15 26 8 14 1022.6 1022.6 5.2
 
Date/Time
EST
Temp
°C
App
Temp
°C
Dew
Point
Rel
Hum
%
Delta-T
°C
Wind Press
QNH
hPa
Press
MSL
hPa
Rain
since 9 am
mm
Dir
 
Spd
km/h
Gust
km/h
Spd
kts
Gust
kts
19/11:30pm 11.9 7.3 3.9 58 3.6 SW 17 26 9 14 1022.6 - 5.2
19/11:00pm 12.1 7.2 4.1 58 3.6 SW 19 30 10 16 1022.6 1022.6 5.2
19/10:30pm 12.1 7.2 4.3 59 3.5 SW 19 28 10 15 1022.6 - 5.2
19/10:00pm 12.4 8.0 4.6 59 3.5 SW 17 28 9 15 1022.6 1022.6 5.2
19/09:41pm 13.1 8.7 5.0 58 3.8 SW 17 30 9 16 1022.6 - 5.2
19/09:32pm 13.6 5.8 6.7 63 3.3 S 37 57 20 31 1022.4 - 5.2
19/09:30pm 13.6 5.6 7.4 66 3.0 S 39 57 21 31 1022.4 - 5.2
19/09:00pm 13.5 7.0 6.6 63 3.3 S 30 50 16 27 1022.3 1022.3 5.2
19/08:55pm 13.5 7.0 6.6 63 3.3 S 30 50 16 27 1022.3 - 5.2
19/08:30pm 13.5 5.5 5.7 59 3.7 S 37 54 20 29 1022.0 - 5.2
19/08:12pm 13.6 6.2 6.7 63 3.3 S 35 59 19 32 1021.7 - 5.2
19/08:00pm 13.7 6.7 6.8 63 3.3 S 33 48 18 26 1021.7 1021.7 5.2
19/07:49pm 13.7 5.1 6.6 62 3.4 S 41 59 22 32 1021.7 - 5.2
19/07:30pm 13.9 4.9 6.3 60 3.6 S 43 61 23 33 1021.6 - 5.2
19/07:05pm 13.7 5.3 7.2 65 3.2 S 41 59 22 32 1021.3 - 5.2
19/07:00pm 13.9 4.1 7.2 64 3.3 S 48 61 26 33 1021.2 1021.2 5.2
19/06:30pm 14.0 3.0 6.6 61 3.6 S 54 70 29 38 1020.6 - 5.2
19/06:00pm 13.9 3.2 7.9 67 3.0 S 54 67 29 36 1020.1 1020.1 5.2
19/05:30pm 14.0 2.9 8.0 67 3.0 S 56 67 30 36 1019.8 - 5.2
19/05:00pm 14.1 5.1 8.7 70 2.7 S 46 59 25 32 1019.4 1019.4 5.2
19/04:30pm 14.3 4.0 8.3 67 3.0 S 52 67 28 36 1019.0 - 5.2
19/04:00pm 14.5 5.0 8.5 67 3.0 S 48 61 26 33 1018.8 1018.8 5.2
19/03:30pm 14.6 5.6 8.8 68 2.9 S 46 61 25 33 1018.4 - 5.2
19/03:00pm 14.6 5.4 9.4 71 2.7 S 48 65 26 35 1018.2 1018.2 5.2
19/02:30pm 13.4 5.3 10.8 84 1.4 S 44 65 24 35 1018.0 - 5.2
19/02:29pm 13.5 5.4 10.9 84 1.4 S 44 65 24 35 1018.1 - 5.2
19/02:00pm 13.2 4.3 10.7 85 1.3 S 48 63 26 34 1018.0 1018.0 5.2
19/01:30pm 13.7 7.0 11.0 84 1.4 S 37 57 20 31 1017.9 - 5.2
19/01:01pm 13.5 7.1 12.1 91 0.8 S 37 57 20 31 1017.8 - 5.2
19/01:00pm 13.4 6.6 11.8 90 0.9 S 39 57 21 31 1017.8 1017.8 5.2
19/12:31pm 14.2 8.1 11.9 86 1.2 SSW 35 54 19 29 1017.7 - 5.2
19/12:30pm 14.2 8.1 11.9 86 1.2 SSW 35 52 19 28 1017.7 - 5.2
19/12:02pm 13.8 7.2 11.5 86 1.2 SSW 37 57 20 31 1017.7 - 5.2
19/12:00pm 13.9 7.8 11.6 86 1.2 SSW 35 52 19 28 1017.7 1017.7 5.2
19/11:40am 13.8 8.3 11.8 88 1.1 SSW 32 54 17 29 1017.9 - 5.2
19/11:30am 13.6 8.2 12.2 91 0.8 SSW 32 46 17 25 1017.9 - 5.2
19/11:00am 13.7 8.9 12.8 94 0.5 SSW 30 46 16 25 1017.9 1017.9 5.2
19/10:30am 12.3 8.7 12.0 98 0.2 SSW 22 32 12 17 1017.9 - 5.0
19/10:00am 12.2 9.2 11.9 98 0.2 SSW 19 30 10 16 1018.0 1018.0 4.2
19/09:30am 12.6 8.8 12.3 98 0.2 SSW 24 33 13 18 1018.2 - 1.6
19/09:00am 12.1 8.9 11.8 98 0.2 SW 20 30 11 16 1017.7 1017.7 32.0
19/08:30am 12.2 9.0 11.9 98 0.2 SSW 20 37 11 20 1017.6 - 31.2
19/08:00am 11.9 8.5 11.3 96 0.3 SW 20 33 11 18 1017.0 1017.0 29.0
19/07:30am 12.4 7.8 12.2 99 0.1 SSW 28 48 15 26 1016.7 - 28.8
19/07:00am 12.4 7.7 11.9 97 0.3 SSW 28 50 15 27 1016.2 1016.2 28.4
19/06:59am 12.4 7.7 11.9 97 0.3 SSW 28 50 15 27 1016.2 - 28.4
19/06:30am 12.1 8.6 11.0 93 0.6 SSW 20 32 11 17 1016.0 - 27.4
19/06:00am 12.1 8.6 10.8 92 0.7 SW 20 30 11 16 1015.5 1015.5 27.4
19/05:30am 12.4 9.1 11.6 95 0.4 SSW 20 32 11 17 1015.3 - 27.4
19/05:00am 12.2 8.1 11.6 96 0.3 SSW 24 37 13 20 1015.0 1015.0 27.4
19/04:30am 12.2 8.6 11.7 97 0.3 SSW 22 35 12 19 1014.7 - 27.4
19/04:00am 12.3 9.1 11.8 97 0.3 SSW 20 30 11 16 1014.6 1014.6 27.2
19/03:30am 12.8 9.3 10.3 85 1.3 SSW 19 30 10 16 1014.4 - 24.6
19/03:16am 14.0 9.7 10.6 80 1.8 SW 24 37 13 20 1014.5 - 24.6
19/03:00am 14.9 8.2 11.1 78 2.0 S 37 57 20 31 1014.1 1014.1 24.6
19/02:34am 14.9 6.6 11.3 79 1.9 S 46 67 25 36 1013.9 - 24.6
19/02:30am 14.9 6.2 11.3 79 1.9 S 48 63 26 34 1013.9 - 24.6
19/02:22am 14.9 7.3 11.9 82 1.6 S 43 61 23 33 1013.9 - 24.6
19/02:00am 14.3 6.5 11.8 85 1.3 S 44 61 24 33 1013.9 1013.9 24.6
19/01:38am 14.4 7.0 12.6 89 1.0 S 43 61 23 33 1013.9 - 24.6
19/01:30am 14.2 5.9 12.6 90 0.9 S 48 57 26 31 1013.9 - 24.6
19/01:00am 13.9 6.5 13.1 95 0.4 S 44 61 24 33 1013.8 1013.8 24.6
19/12:30am 13.0 4.6 12.4 96 0.3 S 48 57 26 31 1013.6 - 24.4
19/12:06am 12.8 6.4 11.9 94 0.5 S 37 57 20 31 1013.4 - 23.8
19/12:00am 13.9 8.2 13.1 95 0.4 S 35 54 19 29 1013.4 1013.4 22.6
 
Date/Time
EST
Temp
°C
App
Temp
°C
Dew
Point
Rel
Hum
%
Delta-T
°C
Wind Press
QNH
hPa
Press
MSL
hPa
Rain
since 9 am
mm
Dir
 
Spd
km/h
Gust
km/h
Spd
kts
Gust
kts
18/11:30pm 13.3 7.2 13.0 98 0.2 S 37 59 20 32 1013.2 - 22.6
18/11:09pm 13.5 4.3 12.1 91 0.8 S 52 72 28 39 1013.1 - 21.4
18/11:00pm 13.8 5.5 12.7 93 0.6 S 48 63 26 34 1013.1 1013.1 21.4
18/10:30pm 13.9 6.7 13.1 95 0.4 S 43 59 23 32 1013.1 - 21.2
18/10:16pm 13.8 5.5 12.7 93 0.6 S 48 67 26 36 1012.8 - 21.0
18/10:00pm 13.1 5.2 12.8 98 0.2 S 46 57 25 31 1012.7 1012.7 21.0
18/09:30pm 13.2 8.1 13.2 100 0.0 S 32 61 17 33 1012.6 - 20.4
18/09:01pm 12.8 7.4 12.8 100 0.0 S 33 52 18 28 1012.6 - 18.8
18/09:00pm 12.9 7.2 12.9 100 0.0 S 35 52 19 28 1012.6 1012.6 18.8
18/08:30pm 13.1 5.7 13.1 100 0.0 S 44 70 24 38 1012.3 - 17.6
18/08:00pm 13.3 6.1 13.0 98 0.2 S 43 63 23 34 1011.8 1011.8 13.2
18/07:48pm 13.6 5.1 13.3 98 0.2 S 50 69 27 37 1011.7 - 12.8
18/07:30pm 13.3 3.0 13.0 98 0.2 S 59 72 32 39 1011.5 - 12.6
18/07:00pm 13.5 2.9 13.2 98 0.2 S 61 93 33 50 1011.2 1011.2 11.0
18/06:30pm 13.1 2.7 12.6 97 0.3 S 59 82 32 44 1010.5 - 9.6
18/06:00pm 13.4 3.5 13.1 98 0.2 S 57 78 31 42 1010.4 1010.4 7.8
18/05:30pm 13.3 3.5 12.7 96 0.3 S 56 69 30 37 1010.0 - 6.4
18/05:15pm 13.6 3.6 12.8 95 0.4 S 57 76 31 41 1009.8 - 6.0
18/05:00pm 13.3 2.9 12.7 96 0.3 S 59 76 32 41 1009.5 1009.5 5.8
18/04:31pm 13.3 4.9 12.4 94 0.5 S 48 72 26 39 1009.2 - 5.0
18/04:30pm 13.4 5.1 12.5 94 0.5 S 48 65 26 35 1009.2 - 4.8
18/04:01pm 13.2 3.4 12.6 96 0.3 S 56 74 30 40 1009.0 - 4.8
18/04:00pm 13.1 3.2 12.5 96 0.3 S 56 72 30 39 1009.1 1009.1 4.8
18/03:45pm 13.7 3.6 11.6 87 1.1 S 56 78 30 42 1008.9 - 3.6
18/03:30pm 13.7 4.0 11.8 88 1.0 S 54 69 29 37 1008.8 - 3.6
18/03:06pm 12.4 1.0 10.6 89 0.9 S 61 82 33 44 1008.8 - 3.2
18/03:00pm 13.6 2.8 12.5 93 0.6 S 61 74 33 40 1008.6 1008.6 3.0
18/02:30pm 13.5 3.9 12.1 91 0.8 S 54 78 29 42 1008.7 - 2.6
18/02:22pm 13.7 3.3 11.2 85 1.3 S 57 78 31 42 1008.5 - 2.4
18/02:00pm 13.9 4.3 12.1 89 1.0 S 54 69 29 37 1008.6 1008.6 2.4
18/01:30pm 12.7 5.4 11.6 93 0.6 S 41 65 22 35 1008.9 - 2.2
18/01:00pm 14.2 7.0 11.9 86 1.2 S 41 63 22 34 1008.4 1008.4 1.0
18/12:30pm 15.1 6.8 11.3 78 2.0 S 46 70 25 38 1008.5 - 0.0
18/12:00pm 15.3 7.8 10.7 74 2.4 S 41 59 22 32 1008.8 1008.8 0.0
18/11:30am 15.4 7.4 10.4 72 2.6 S 43 61 23 33 1009.2 - 0.0
18/11:19am 15.3 7.6 10.3 72 2.6 S 41 59 22 32 1009.2 - 0.0
18/11:00am 15.2 7.7 10.8 75 2.3 S 41 59 22 32 1009.2 1009.2 0.0
18/10:30am 13.9 6.5 9.9 77 2.1 SSE 39 65 21 35 1009.2 - 0.0
18/10:12am 14.8 7.3 10.8 77 2.1 S 41 61 22 33 1009.2 - 0.0
18/10:00am 15.5 7.9 10.5 72 2.6 SSE 41 59 22 32 1009.1 1009.1 0.0
18/09:46am 15.3 7.8 10.7 74 2.4 S 41 61 22 33 1008.9 - 0.0
18/09:30am 15.2 7.7 10.8 75 2.3 S 41 57 22 31 1008.9 - 0.0
18/09:08am 15.0 7.9 10.8 76 2.2 S 39 61 21 33 1008.8 - 0.0
18/09:00am 15.0 7.9 11.0 77 2.1 S 39 54 21 29 1008.8 1008.8 60.0
18/08:49am 14.9 7.0 10.9 77 2.1 SSE 43 63 23 34 1008.8 - 60.0
18/08:30am 14.8 7.3 10.8 77 2.1 SSE 41 57 22 31 1008.7 - 60.0
18/08:00am 14.7 7.4 11.5 81 1.7 SSE 41 61 22 33 1008.5 1008.5 60.0
18/07:33am 14.3 6.5 11.3 82 1.6 SSE 43 61 23 33 1008.4 - 60.0
18/07:30am 14.3 6.4 11.6 84 1.4 SSE 44 61 24 33 1008.3 - 60.0
18/07:10am 13.6 6.5 12.2 91 0.8 SSE 41 67 22 36 1008.3 - 60.0
18/07:00am 13.5 6.9 12.6 94 0.5 SSE 39 52 21 28 1008.3 1008.3 60.0
18/06:31am 13.4 5.9 12.6 95 0.4 SSE 44 65 24 35 1008.0 - 59.8
18/06:30am 13.4 5.5 12.6 95 0.4 SSE 46 65 25 35 1008.0 - 59.8
18/06:00am 13.3 5.9 13.0 98 0.2 SSE 44 65 24 35 1007.7 1007.7 59.4
18/05:31am 13.2 5.4 13.0 99 0.1 SSE 46 65 25 35 1007.2 - 58.4
18/05:30am 13.2 5.4 13.0 99 0.1 SSE 46 65 25 35 1007.2 - 58.4
18/05:00am 13.4 4.5 13.1 98 0.2 SSE 52 72 28 39 1006.6 1006.6 56.4
18/04:30am 13.6 6.3 13.4 99 0.1 SSE 44 67 24 36 1006.2 - 54.8
18/04:01am 13.6 6.3 13.4 99 0.1 SSE 44 65 24 35 1005.8 - 53.4
18/04:00am 13.7 6.6 13.5 99 0.1 SSE 43 59 23 32 1005.9 1005.9 53.4
18/03:30am 13.6 7.6 13.3 98 0.2 SSE 37 56 20 30 1006.0 - 51.4
18/03:17am 13.9 8.0 13.6 98 0.2 SSE 37 57 20 31 1005.9 - 50.6
18/03:00am 13.9 7.9 13.4 97 0.3 SSE 37 56 20 30 1006.1 1006.1 49.4
18/02:31am 13.8 7.4 13.2 96 0.3 SSE 39 59 21 32 1006.1 - 48.0
18/02:30am 13.9 7.5 13.3 96 0.3 SSE 39 56 21 30 1006.2 - 48.0
18/02:03am 13.9 8.7 13.3 96 0.3 SE 33 54 18 29 1006.5 - 46.8
18/02:00am 13.9 8.2 13.1 95 0.4 SE 35 52 19 28 1006.5 1006.5 46.6
18/01:30am 14.0 9.8 13.4 96 0.3 SE 28 52 15 28 1006.6 - 46.0
18/01:11am 14.2 10.1 13.7 97 0.3 SE 28 46 15 25 1006.5 - 45.2
18/01:00am 14.2 10.4 13.6 96 0.3 SE 26 44 14 24 1006.5 1006.5 44.8
18/12:31am 14.3 10.0 13.3 94 0.6 ESE 28 50 15 27 1006.6 - 44.0
18/12:30am 14.3 10.4 13.3 94 0.6 ESE 26 50 14 27 1006.6 - 44.0
18/12:13am 14.4 10.2 13.4 94 0.6 ESE 28 50 15 27 1006.6 - 44.0
18/12:00am 14.5 10.7 13.5 94 0.6 ESE 26 43 14 23 1006.6 1006.6 43.8
 
Date/Time
EST
Temp
°C
App
Temp
°C
Dew
Point
Rel
Hum
%
Delta-T
°C
Wind Press
QNH
hPa
Press
MSL
hPa
Rain
since 9 am
mm
Dir
 
Spd
km/h
Gust
km/h
Spd
kts
Gust
kts
17/11:30pm 14.5 11.6 14.0 97 0.3 ESE 22 39 12 21 1006.5 - 43.8
17/11:00pm 14.5 11.0 14.5 100 0.0 ESE 26 43 14 23 1006.3 1006.3 43.4
17/10:32pm 14.3 10.4 14.3 100 0.0 SE 28 52 15 28 1006.4 - 42.6
17/10:30pm 14.5 11.0 14.5 100 0.0 SE 26 46 14 25 1006.3 - 42.2
17/10:00pm 14.1 10.5 14.1 100 0.0 SE 26 46 14 25 1006.3 1006.3 38.0
17/09:39pm 14.4 10.1 14.4 100 0.0 SE 30 50 16 27 1006.1 - 35.6
17/09:30pm 14.5 9.9 14.5 100 0.0 SE 32 46 17 25 1005.9 - 35.2
17/09:00pm 14.3 7.9 14.3 100 0.0 SSE 41 69 22 37 1005.6 1005.6 31.8
17/08:31pm 14.0 6.5 14.0 100 0.0 S 46 67 25 36 1005.6 - 17.4
17/08:30pm 14.0 6.5 14.0 100 0.0 S 46 65 25 35 1005.7 - 17.2
17/08:03pm 14.1 7.2 14.1 100 0.0 SSE 43 65 23 35 1006.6 - 13.6
17/08:00pm 14.1 7.6 13.9 99 0.1 S 41 59 22 32 1006.7 1006.7 13.4
17/07:30pm 14.5 8.7 14.0 97 0.3 SSE 37 56 20 30 1006.8 - 11.6
17/07:00pm 14.4 9.0 13.9 97 0.3 SSE 35 48 19 26 1007.2 1007.2 11.6
17/06:30pm 14.3 9.0 14.1 99 0.1 SSE 35 50 19 27 1007.5 - 11.6
17/06:02pm 14.2 10.2 14.2 100 0.0 SSE 28 52 15 28 1007.6 - 11.4
17/06:00pm 14.1 10.1 14.1 100 0.0 SSE 28 43 15 23 1007.6 1007.6 11.4
17/05:30pm 14.0 8.6 14.0 100 0.0 SSE 35 50 19 27 1007.5 - 10.6
17/05:00pm 14.1 8.7 13.9 99 0.1 SSE 35 56 19 30 1007.3 1007.3 9.4
17/04:55pm 14.1 8.7 13.8 98 0.2 SSE 35 56 19 30 1007.2 - 8.8

Other Formats:

Comma delimited format used in spreadsheet applications
http://www.bom.gov.au/fwo/IDN60801/IDN60801.94938.axf

JavaScript Object Notation format (JSON) in row-major order
http://www.bom.gov.au/fwo/IDN60801/IDN60801.94938.json